createdAt,value
2022-11-22T00:01:22.600Z,65777.56
2022-11-22T00:06:26.424Z,65751.75
2022-11-22T00:11:31.550Z,65695.16
2022-11-22T00:16:35.688Z,65743.72
2022-11-22T00:21:39.453Z,65770.34
2022-11-22T00:26:44.540Z,65706.09
2022-11-22T00:31:48.327Z,65695.78
2022-11-22T00:36:52.106Z,65597.38
2022-11-22T00:41:57.419Z,65684.56
2022-11-22T00:47:01.250Z,65733.69
2022-11-22T00:52:05.371Z,65757.09
2022-11-22T00:57:10.518Z,65702.16
2022-11-22T01:02:14.233Z,65632.59
2022-11-22T01:07:18.351Z,65644.53
2022-11-22T01:12:23.494Z,65636.44
2022-11-22T01:17:27.896Z,65671.84
2022-11-22T01:22:31.621Z,65619.34
2022-11-22T01:27:36.820Z,65523.78
2022-11-22T01:32:40.655Z,65521.09
2022-11-22T01:37:44.412Z,65568.13
2022-11-22T01:42:52.262Z,65645.94
2022-11-22T01:47:57.086Z,65664.81
2022-11-22T01:53:04.650Z,65641.34
2022-11-22T01:58:11.651Z,65704.13
2022-11-22T02:03:17.401Z,65774.25
2022-11-22T02:08:28.215Z,65793.88
2022-11-22T02:13:37.431Z,65785.53
2022-11-22T02:18:41.494Z,65836.56
2022-11-22T02:23:57.381Z,65865.13
2022-11-22T02:29:07.792Z,65770.00
2022-11-22T02:34:12.342Z,65809.56
2022-11-22T02:39:18.826Z,65815.78
2022-11-22T02:44:24.499Z,65841.09
2022-11-22T02:49:28.718Z,65836.72
2022-11-22T02:54:32.800Z,65676.53
2022-11-22T02:59:38.112Z,65693.53
2022-11-22T03:04:42.073Z,65697.28
2022-11-22T03:09:45.759Z,65685.72
2022-11-22T03:14:51.114Z,65690.41
2022-11-22T03:19:54.836Z,65731.44
2022-11-22T03:24:58.675Z,65744.38
2022-11-22T03:30:04.493Z,65759.75
2022-11-22T03:35:09.177Z,65703.66
2022-11-22T03:40:13.812Z,65672.81
2022-11-22T03:45:19.105Z,65583.69
2022-11-22T03:50:22.918Z,65548.94
2022-11-22T03:55:26.840Z,65549.03
2022-11-22T04:00:32.128Z,65495.53
2022-11-22T04:05:36.031Z,65611.78
2022-11-22T04:10:39.963Z,65600.13
2022-11-22T04:15:45.061Z,65555.88
2022-11-22T04:21:08.306Z,65534.00
2022-11-22T04:26:12.119Z,65600.78
2022-11-22T04:31:34.491Z,65546.34
2022-11-22T04:36:40.559Z,65614.63
2022-11-22T04:41:47.957Z,65661.41
2022-11-22T04:46:55.799Z,65639.63
2022-11-22T04:52:18.936Z,65698.34
2022-11-22T04:57:23.898Z,65682.97
2022-11-22T05:02:29.008Z,65701.09
2022-11-22T05:07:34.878Z,65735.28
2022-11-22T05:12:38.577Z,65732.50
2022-11-22T05:17:43.712Z,65707.06
2022-11-22T05:23:06.270Z,65760.19
2022-11-22T05:28:12.332Z,65748.09
2022-11-22T05:33:20.531Z,65746.50
2022-11-22T05:38:28.278Z,65764.09
2022-11-22T05:43:35.682Z,65734.22
2022-11-22T05:48:44.221Z,65759.84
2022-11-22T05:53:48.611Z,65757.72
2022-11-22T05:58:52.639Z,65670.78
2022-11-22T06:03:57.767Z,65689.34
2022-11-22T06:09:01.460Z,65679.13
2022-11-22T06:14:05.394Z,65712.66
2022-11-22T06:19:13.296Z,65694.06
2022-11-22T06:24:20.108Z,65774.91
2022-11-22T06:29:26.331Z,65737.41
2022-11-22T06:34:34.255Z,65715.97
2022-11-22T06:39:41.216Z,65832.34
2022-11-22T06:44:47.449Z,65810.53
2022-11-22T06:49:55.120Z,65813.94
2022-11-22T06:55:07.747Z,65810.53
2022-11-22T07:00:19.719Z,65805.19
2022-11-22T07:05:28.614Z,65774.81
2022-11-22T07:10:34.398Z,65789.16
2022-11-22T07:15:40.215Z,65818.53
2022-11-22T07:20:47.236Z,65953.38
2022-11-22T07:25:51.384Z,65956.41
2022-11-22T07:31:00.429Z,65973.72
2022-11-22T07:36:10.047Z,65920.66
2022-11-22T07:41:14.524Z,65887.50
2022-11-22T07:46:23.442Z,65898.72
2022-11-22T07:51:30.044Z,65914.88
2022-11-22T07:56:36.462Z,65943.22
2022-11-22T08:01:40.614Z,65917.00
2022-11-22T08:06:46.057Z,65930.38
2022-11-22T08:11:49.795Z,65913.19
2022-11-22T08:16:53.809Z,65944.81
2022-11-22T08:21:58.962Z,65944.09
2022-11-22T08:27:02.847Z,65872.53
2022-11-22T08:32:06.765Z,65944.28
2022-11-22T08:37:12.031Z,65970.94
2022-11-22T08:42:15.793Z,65932.97
2022-11-22T08:47:19.554Z,65958.72
2022-11-22T08:52:24.960Z,65922.34
2022-11-22T08:57:28.836Z,65928.22
2022-11-22T09:02:32.713Z,65947.84
2022-11-22T09:13:02.280Z,65974.59
2022-11-22T09:18:06.247Z,65897.13
2022-11-22T09:23:11.589Z,65902.66
2022-11-22T09:28:15.372Z,65949.63
2022-11-22T09:33:19.208Z,65946.63
2022-11-22T09:38:24.317Z,66013.94
2022-11-22T09:43:40.868Z,65970.94
2022-11-22T09:49:01.079Z,65904.63
2022-11-22T09:54:11.767Z,66007.97
2022-11-22T09:59:21.247Z,66025.97
2022-11-22T10:04:30.315Z,66044.81
2022-11-22T10:09:42.545Z,65938.22
2022-11-22T10:14:51.778Z,65993.84
2022-11-22T10:20:05.943Z,66027.75
2022-11-22T10:25:16.590Z,65982.81
2022-11-22T10:30:21.918Z,66004.13
2022-11-22T10:35:40.534Z,66039.97
2022-11-22T10:40:55.894Z,66101.66
2022-11-22T10:46:09.132Z,66108.63
2022-11-22T10:51:21.879Z,66142.47
2022-11-22T10:56:35.190Z,66140.78
2022-11-22T11:01:47.741Z,66117.63
2022-11-22T11:07:12.245Z,66062.41
2022-11-22T11:12:25.014Z,66180.25
2022-11-22T11:17:32.972Z,66182.50
2022-11-22T11:23:12.434Z,66134.25
2022-11-22T11:28:06.288Z,66065.16
2022-11-22T11:33:24.933Z,66104.34
2022-11-22T11:38:38.005Z,66045.44
2022-11-22T11:43:45.689Z,66149.16
2022-11-22T11:48:51.172Z,66110.78
2022-11-22T11:53:59.995Z,66249.06
2022-11-22T11:59:13.086Z,66414.31
2022-11-22T12:04:22.867Z,66476.06
2022-11-22T12:09:32.999Z,66419.22
2022-11-22T12:15:09.037Z,66435.78
2022-11-22T12:20:09.507Z,66421.22
2022-11-22T12:25:38.568Z,66359.41
2022-11-22T12:30:46.318Z,66282.31
2022-11-22T12:35:54.510Z,66379.34
2022-11-22T12:41:01.953Z,66481.38
2022-11-22T12:46:12.832Z,66447.06
2022-11-22T12:51:24.955Z,66475.44
2022-11-22T12:56:37.855Z,66520.66
2022-11-22T13:01:49.110Z,66474.84
2022-11-22T13:06:59.351Z,66418.16
2022-11-22T13:12:07.174Z,66475.38
2022-11-22T13:17:15.323Z,66458.34
2022-11-22T13:22:29.609Z,66494.25
2022-11-22T13:27:37.490Z,66420.91
2022-11-22T13:32:43.232Z,66438.38
2022-11-22T13:37:49.895Z,66408.97
2022-11-22T13:43:31.002Z,66389.16
2022-11-22T13:49:14.996Z,66336.47
2022-11-22T13:55:15.076Z,66363.75
2022-11-22T14:00:46.331Z,66229.72
2022-11-22T14:05:53.033Z,66165.88
2022-11-22T14:11:12.172Z,66158.91
2022-11-22T14:16:29.145Z,66118.81
2022-11-22T14:21:54.864Z,66100.06
2022-11-22T14:27:08.239Z,66093.47
2022-11-22T14:32:18.163Z,66021.78
2022-11-22T14:37:48.271Z,65995.66
2022-11-22T14:42:56.071Z,65916.56
2022-11-22T14:48:04.533Z,65918.06
2022-11-22T14:53:21.100Z,65806.88
2022-11-22T14:58:30.346Z,65720.22
2022-11-22T15:09:17.864Z,65747.03
2022-11-22T15:09:52.892Z,65680.81
2022-11-22T15:59:12.638Z,65661.16
2022-11-22T16:04:23.176Z,65701.53
2022-11-22T16:09:32.533Z,65698.25
2022-11-22T16:14:43.953Z,65635.88
2022-11-22T16:19:47.983Z,65592.16
2022-11-22T16:24:51.813Z,65617.00
2022-11-22T16:29:57.266Z,65625.66
2022-11-22T16:35:27.401Z,65669.06
2022-11-22T16:40:25.093Z,65624.69
2022-11-22T16:45:31.549Z,65629.56
2022-11-22T16:50:35.422Z,65675.47
2022-11-22T16:55:39.898Z,65637.94
2022-11-22T17:00:46.568Z,65631.72
2022-11-22T17:05:50.967Z,65486.75
2022-11-22T17:10:55.636Z,65467.28
2022-11-22T17:16:00.785Z,65447.47
2022-11-22T17:21:06.471Z,65533.78
2022-11-22T17:26:10.864Z,65590.09
2022-11-22T17:31:17.918Z,65484.44
2022-11-22T17:36:26.450Z,65468.53
2022-11-22T17:41:30.691Z,65480.06
2022-11-22T17:46:38.286Z,65446.59
2022-11-22T17:51:42.202Z,65462.56
2022-11-22T17:56:45.999Z,65517.47
2022-11-22T18:01:51.145Z,65554.28
2022-11-22T18:06:55.131Z,65578.78
2022-11-22T18:11:59.124Z,65535.50
2022-11-22T18:17:04.389Z,65585.28
2022-11-22T18:22:08.181Z,65579.44
2022-11-22T18:27:12.133Z,65590.97
2022-11-22T18:32:17.397Z,65555.44
2022-11-22T18:37:21.216Z,65587.78
2022-11-22T18:42:25.155Z,65591.72
2022-11-22T18:47:30.589Z,65575.41
2022-11-22T18:52:35.133Z,65567.59
2022-11-22T18:57:38.929Z,65576.66
2022-11-22T19:02:44.503Z,65578.34
2022-11-22T19:07:50.393Z,65554.38
2022-11-22T19:12:54.499Z,65554.19
2022-11-22T19:17:59.657Z,65534.00
2022-11-22T19:23:03.512Z,65551.59
2022-11-22T19:28:07.577Z,65523.66
2022-11-22T19:33:12.948Z,65549.81
2022-11-22T19:38:17.073Z,65463.63
2022-11-22T19:43:21.426Z,65487.63
2022-11-22T19:48:26.638Z,65503.31
2022-11-22T19:53:30.633Z,65498.91
2022-11-22T19:58:34.973Z,65513.97
2022-11-22T20:03:41.772Z,65477.25
2022-11-22T20:08:45.987Z,65408.66
2022-11-22T20:13:52.257Z,65373.72
2022-11-22T20:18:58.861Z,65412.59
2022-11-22T20:24:03.721Z,65413.56
2022-11-22T20:29:13.803Z,65350.72
2022-11-22T20:34:20.804Z,65417.41
2022-11-22T20:39:28.283Z,65386.72
2022-11-22T20:44:33.979Z,65417.72
2022-11-22T20:49:45.088Z,65466.84
2022-11-22T20:54:49.456Z,65359.69
2022-11-22T20:59:53.190Z,65412.50
2022-11-22T21:04:58.386Z,65379.38
2022-11-22T21:10:02.166Z,65387.03
2022-11-22T21:15:06.916Z,65343.69
2022-11-22T21:20:13.530Z,65375.53
2022-11-22T21:25:17.453Z,65367.75
2022-11-22T21:30:21.675Z,65374.16
2022-11-22T21:35:26.898Z,65346.88
2022-11-22T21:40:30.780Z,65321.97
2022-11-22T21:45:34.577Z,65345.72
2022-11-22T21:50:39.716Z,65362.00
2022-11-22T21:55:49.850Z,65374.16
2022-11-22T22:00:57.549Z,65284.31
2022-11-22T22:06:02.962Z,65311.84
2022-11-22T22:11:07.040Z,65320.81
2022-11-22T22:16:15.703Z,65324.00
2022-11-22T22:21:21.528Z,65283.13
2022-11-22T22:26:25.094Z,65271.31
2022-11-22T22:31:28.884Z,65298.47
2022-11-22T22:36:34.196Z,65250.56
2022-11-22T22:41:38.000Z,65201.22
2022-11-22T22:46:41.753Z,65221.13
2022-11-22T22:51:46.855Z,65214.09
2022-11-22T22:56:50.677Z,65177.72
2022-11-22T23:01:54.438Z,65138.38
2022-11-22T23:06:59.590Z,65125.09
2022-11-22T23:12:12.473Z,65132.75
2022-11-22T23:17:16.275Z,65203.44
2022-11-22T23:22:25.802Z,65169.31
2022-11-22T23:27:29.968Z,65175.69
2022-11-22T23:32:33.870Z,65204.84
2022-11-22T23:37:38.985Z,65204.72
2022-11-22T23:42:42.940Z,65231.94
2022-11-22T23:47:51.248Z,65184.31
2022-11-22T23:52:57.270Z,65226.22
2022-11-22T23:58:01.316Z,65173.25
